sensor_id;sensor_type;location;lat;lon;timestamp;pressure;altitude;pressure_sealevel;temperature;humidity
34674;BME280;20879;55.668;37.858;2022-07-22T00:01:13;99284.94;;;15.50;88.83
34674;BME280;20879;55.668;37.858;2022-07-22T00:03:43;99283.13;;;15.52;88.83
34674;BME280;20879;55.668;37.858;2022-07-22T00:06:13;99279.09;;;15.45;89.08
34674;BME280;20879;55.668;37.858;2022-07-22T00:08:43;99286.06;;;15.45;89.40
34674;BME280;20879;55.668;37.858;2022-07-22T00:11:14;99298.91;;;15.49;88.94
34674;BME280;20879;55.668;37.858;2022-07-22T00:13:43;99258.06;;;15.48;89.20
34674;BME280;20879;55.668;37.858;2022-07-22T00:16:14;99253.06;;;15.44;89.33
34674;BME280;20879;55.668;37.858;2022-07-22T00:18:44;99264.94;;;15.51;88.84
34674;BME280;20879;55.668;37.858;2022-07-22T00:21:13;99291.59;;;15.58;88.45
34674;BME280;20879;55.668;37.858;2022-07-22T00:23:42;99267.91;;;15.62;88.14
34674;BME280;20879;55.668;37.858;2022-07-22T00:26:16;99281.63;;;15.67;88.33
34674;BME280;20879;55.668;37.858;2022-07-22T00:28:45;99290.13;;;15.72;87.47
34674;BME280;20879;55.668;37.858;2022-07-22T00:31:14;99280.28;;;15.79;87.45
34674;BME280;20879;55.668;37.858;2022-07-22T00:33:44;99294.22;;;15.78;87.21
34674;BME280;20879;55.668;37.858;2022-07-22T00:36:13;99258.81;;;15.71;87.43
34674;BME280;20879;55.668;37.858;2022-07-22T00:38:44;99282.53;;;15.66;87.72
34674;BME280;20879;55.668;37.858;2022-07-22T00:41:15;99304.84;;;15.73;87.96
34674;BME280;20879;55.668;37.858;2022-07-22T00:43:53;99229.84;;;15.58;87.87
34674;BME280;20879;55.668;37.858;2022-07-22T00:46:23;99296.09;;;15.75;87.52
34674;BME280;20879;55.668;37.858;2022-07-22T00:48:53;99275.22;;;15.75;87.63
34674;BME280;20879;55.668;37.858;2022-07-22T00:51:25;99275.94;;;15.78;87.30
34674;BME280;20879;55.668;37.858;2022-07-22T00:53:58;99310.84;;;15.76;87.72
34674;BME280;20879;55.668;37.858;2022-07-22T00:56:30;99287.19;;;15.80;87.42
34674;BME280;20879;55.668;37.858;2022-07-22T00:59:01;99307.44;;;15.73;87.58
34674;BME280;20879;55.668;37.858;2022-07-22T01:01:31;99272.47;;;15.78;87.34
34674;BME280;20879;55.668;37.858;2022-07-22T01:04:00;99300.31;;;15.79;87.78
34674;BME280;20879;55.668;37.858;2022-07-22T01:06:31;99311.00;;;15.72;87.69
34674;BME280;20879;55.668;37.858;2022-07-22T01:09:00;99251.47;;;15.81;87.21
34674;BME280;20879;55.668;37.858;2022-07-22T01:11:32;99273.38;;;15.77;87.63
34674;BME280;20879;55.668;37.858;2022-07-22T01:14:02;99299.13;;;15.86;87.61
34674;BME280;20879;55.668;37.858;2022-07-22T01:16:32;99313.28;;;15.80;87.92
34674;BME280;20879;55.668;37.858;2022-07-22T01:19:01;99269.00;;;15.79;87.47
34674;BME280;20879;55.668;37.858;2022-07-22T01:21:33;99314.25;;;15.78;88.22
34674;BME280;20879;55.668;37.858;2022-07-22T01:24:03;99302.84;;;15.80;87.61
34674;BME280;20879;55.668;37.858;2022-07-22T01:26:33;99328.47;;;15.91;87.36
34674;BME280;20879;55.668;37.858;2022-07-22T01:29:03;99319.34;;;16.01;87.06
34674;BME280;20879;55.668;37.858;2022-07-22T01:31:32;99345.31;;;16.04;86.27
34674;BME280;20879;55.668;37.858;2022-07-22T01:34:02;99308.59;;;16.07;86.60
34674;BME280;20879;55.668;37.858;2022-07-22T01:36:37;99287.84;;;16.04;86.32
34674;BME280;20879;55.668;37.858;2022-07-22T01:39:07;99256.31;;;16.09;86.12
34674;BME280;20879;55.668;37.858;2022-07-22T01:41:38;99309.56;;;16.06;86.43
34674;BME280;20879;55.668;37.858;2022-07-22T01:44:11;99335.81;;;16.03;86.34
34674;BME280;20879;55.668;37.858;2022-07-22T01:46:41;99328.88;;;16.02;86.62
34674;BME280;20879;55.668;37.858;2022-07-22T01:49:10;99341.03;;;16.03;86.44
34674;BME280;20879;55.668;37.858;2022-07-22T01:51:42;99278.34;;;16.03;86.19
34674;BME280;20879;55.668;37.858;2022-07-22T01:54:13;99339.94;;;16.07;86.55
34674;BME280;20879;55.668;37.858;2022-07-22T01:56:42;99273.06;;;16.05;86.11
34674;BME280;20879;55.668;37.858;2022-07-22T01:59:11;99340.88;;;16.06;85.78
34674;BME280;20879;55.668;37.858;2022-07-22T02:01:41;99324.94;;;16.13;85.94
34674;BME280;20879;55.668;37.858;2022-07-22T02:04:11;99349.22;;;16.15;86.05
34674;BME280;20879;55.668;37.858;2022-07-22T02:06:42;99275.38;;;16.11;85.85
34674;BME280;20879;55.668;37.858;2022-07-22T02:09:12;99325.22;;;16.06;85.76
34674;BME280;20879;55.668;37.858;2022-07-22T02:11:49;99356.06;;;16.17;85.88
34674;BME280;20879;55.668;37.858;2022-07-22T02:14:18;99312.13;;;16.27;85.01
34674;BME280;20879;55.668;37.858;2022-07-22T02:16:50;99373.63;;;16.34;84.44
34674;BME280;20879;55.668;37.858;2022-07-22T02:19:19;99337.97;;;16.33;84.44
34674;BME280;20879;55.668;37.858;2022-07-22T02:21:51;99384.84;;;16.36;84.42
34674;BME280;20879;55.668;37.858;2022-07-22T02:24:20;99331.97;;;16.50;84.15
34674;BME280;20879;55.668;37.858;2022-07-22T02:26:49;99341.84;;;16.43;83.58
34674;BME280;20879;55.668;37.858;2022-07-22T02:29:18;99390.25;;;16.52;83.66
34674;BME280;20879;55.668;37.858;2022-07-22T02:31:48;99330.50;;;16.45;83.98
34674;BME280;20879;55.668;37.858;2022-07-22T02:34:21;99354.69;;;16.29;83.74
34674;BME280;20879;55.668;37.858;2022-07-22T02:36:52;99381.47;;;16.34;84.33
34674;BME280;20879;55.668;37.858;2022-07-22T02:39:24;99380.59;;;16.34;84.13
34674;BME280;20879;55.668;37.858;2022-07-22T02:41:53;99382.66;;;16.27;84.40
34674;BME280;20879;55.668;37.858;2022-07-22T02:44:22;99355.47;;;16.31;84.84
34674;BME280;20879;55.668;37.858;2022-07-22T02:46:52;99359.00;;;16.30;84.68
34674;BME280;20879;55.668;37.858;2022-07-22T02:49:28;99384.59;;;16.22;84.38
34674;BME280;20879;55.668;37.858;2022-07-22T02:52:09;99358.16;;;16.30;85.19
34674;BME280;20879;55.668;37.858;2022-07-22T02:54:39;99395.72;;;16.27;85.34
34674;BME280;20879;55.668;37.858;2022-07-22T02:57:08;99407.84;;;16.28;84.73
34674;BME280;20879;55.668;37.858;2022-07-22T02:59:38;99382.44;;;16.32;84.62
34674;BME280;20879;55.668;37.858;2022-07-22T03:02:10;99411.19;;;16.32;84.62
34674;BME280;20879;55.668;37.858;2022-07-22T03:04:39;99393.47;;;16.38;84.67
34674;BME280;20879;55.668;37.858;2022-07-22T03:07:11;99401.56;;;16.32;84.97
34674;BME280;20879;55.668;37.858;2022-07-22T03:09:41;99413.03;;;16.30;85.26
34674;BME280;20879;55.668;37.858;2022-07-22T03:12:12;99370.22;;;16.32;85.51
34674;BME280;20879;55.668;37.858;2022-07-22T03:14:42;99406.09;;;16.08;85.60
34674;BME280;20879;55.668;37.858;2022-07-22T03:17:14;99352.41;;;16.21;85.33
34674;BME280;20879;55.668;37.858;2022-07-22T03:19:43;99376.22;;;16.34;85.23
34674;BME280;20879;55.668;37.858;2022-07-22T03:22:15;99438.94;;;16.34;85.63
34674;BME280;20879;55.668;37.858;2022-07-22T03:24:44;99429.47;;;16.32;85.78
34674;BME280;20879;55.668;37.858;2022-07-22T03:27:13;99411.78;;;16.38;85.42
34674;BME280;20879;55.668;37.858;2022-07-22T03:29:43;99420.16;;;16.45;84.96
34674;BME280;20879;55.668;37.858;2022-07-22T03:32:12;99439.97;;;16.51;85.16
34674;BME280;20879;55.668;37.858;2022-07-22T03:34:46;99429.38;;;16.54;85.36
34674;BME280;20879;55.668;37.858;2022-07-22T03:37:18;99414.97;;;16.64;84.67
34674;BME280;20879;55.668;37.858;2022-07-22T03:39:48;99453.56;;;16.59;85.00
34674;BME280;20879;55.668;37.858;2022-07-22T03:42:17;99445.22;;;16.70;84.79
34674;BME280;20879;55.668;37.858;2022-07-22T03:44:50;99431.75;;;16.98;84.08
34674;BME280;20879;55.668;37.858;2022-07-22T03:47:20;99438.31;;;17.26;82.47
34674;BME280;20879;55.668;37.858;2022-07-22T03:49:51;99460.63;;;17.52;81.14
34674;BME280;20879;55.668;37.858;2022-07-22T03:52:28;99437.97;;;17.70;79.83
34674;BME280;20879;55.668;37.858;2022-07-22T03:55:01;99455.59;;;17.84;78.92
34674;BME280;20879;55.668;37.858;2022-07-22T03:57:31;99443.16;;;17.89;78.34
34674;BME280;20879;55.668;37.858;2022-07-22T04:00:11;99446.00;;;18.02;77.65
34674;BME280;20879;55.668;37.858;2022-07-22T04:02:41;99452.25;;;18.17;76.75
34674;BME280;20879;55.668;37.858;2022-07-22T04:05:30;99461.56;;;18.23;76.34
34674;BME280;20879;55.668;37.858;2022-07-22T04:08:01;99465.41;;;18.33;76.17
34674;BME280;20879;55.668;37.858;2022-07-22T04:10:31;99438.97;;;18.38;75.52
34674;BME280;20879;55.668;37.858;2022-07-22T04:13:01;99452.31;;;18.33;75.25
34674;BME280;20879;55.668;37.858;2022-07-22T04:15:42;99437.59;;;18.30;75.40
34674;BME280;20879;55.668;37.858;2022-07-22T04:18:11;99445.63;;;18.27;75.00
34674;BME280;20879;55.668;37.858;2022-07-22T04:20:41;99483.47;;;18.39;75.03
34674;BME280;20879;55.668;37.858;2022-07-22T04:23:22;99446.59;;;18.42;74.73
34674;BME280;20879;55.668;37.858;2022-07-22T04:26:01;99450.59;;;18.49;74.02
34674;BME280;20879;55.668;37.858;2022-07-22T04:28:33;99464.53;;;18.50;74.50
34674;BME280;20879;55.668;37.858;2022-07-22T04:31:04;99466.69;;;18.59;73.90
34674;BME280;20879;55.668;37.858;2022-07-22T04:33:37;99447.78;;;18.70;73.17
34674;BME280;20879;55.668;37.858;2022-07-22T04:36:07;99469.50;;;18.72;73.12
34674;BME280;20879;55.668;37.858;2022-07-22T04:38:38;99463.69;;;18.67;73.36
34674;BME280;20879;55.668;37.858;2022-07-22T04:41:10;99433.81;;;18.85;72.84
34674;BME280;20879;55.668;37.858;2022-07-22T04:43:39;99461.78;;;18.86;72.32
34674;BME280;20879;55.668;37.858;2022-07-22T04:46:09;99477.03;;;18.96;72.21
34674;BME280;20879;55.668;37.858;2022-07-22T04:48:42;99481.53;;;18.94;72.08
34674;BME280;20879;55.668;37.858;2022-07-22T04:51:12;99470.84;;;18.97;72.00
34674;BME280;20879;55.668;37.858;2022-07-22T04:53:46;99487.22;;;19.02;71.65
34674;BME280;20879;55.668;37.858;2022-07-22T04:56:21;99475.19;;;18.98;71.09
34674;BME280;20879;55.668;37.858;2022-07-22T04:58:51;99455.72;;;19.02;71.01
34674;BME280;20879;55.668;37.858;2022-07-22T05:01:23;99471.53;;;19.16;70.48
34674;BME280;20879;55.668;37.858;2022-07-22T05:03:55;99462.66;;;19.03;71.01
34674;BME280;20879;55.668;37.858;2022-07-22T05:06:24;99450.06;;;19.26;71.18
34674;BME280;20879;55.668;37.858;2022-07-22T05:08:56;99499.22;;;19.22;70.13
34674;BME280;20879;55.668;37.858;2022-07-22T05:11:30;99483.84;;;19.32;69.48
34674;BME280;20879;55.668;37.858;2022-07-22T05:14:02;99507.13;;;19.38;69.73
34674;BME280;20879;55.668;37.858;2022-07-22T05:16:32;99456.22;;;19.41;69.24
34674;BME280;20879;55.668;37.858;2022-07-22T05:19:01;99480.34;;;19.47;69.18
34674;BME280;20879;55.668;37.858;2022-07-22T05:21:32;99488.22;;;19.47;68.97
34674;BME280;20879;55.668;37.858;2022-07-22T05:24:05;99494.00;;;19.38;69.09
34674;BME280;20879;55.668;37.858;2022-07-22T05:26:55;99485.84;;;19.43;68.81
34674;BME280;20879;55.668;37.858;2022-07-22T05:29:24;99480.44;;;19.46;69.86
34674;BME280;20879;55.668;37.858;2022-07-22T05:31:53;99477.41;;;19.53;69.22
34674;BME280;20879;55.668;37.858;2022-07-22T05:34:23;99484.16;;;19.58;69.16
34674;BME280;20879;55.668;37.858;2022-07-22T05:36:54;99482.28;;;19.60;69.02
34674;BME280;20879;55.668;37.858;2022-07-22T05:39:26;99486.88;;;19.56;69.82
34674;BME280;20879;55.668;37.858;2022-07-22T05:41:55;99497.78;;;19.64;68.45
34674;BME280;20879;55.668;37.858;2022-07-22T05:44:24;99465.53;;;19.62;68.14
34674;BME280;20879;55.668;37.858;2022-07-22T05:46:55;99440.38;;;19.58;67.96
34674;BME280;20879;55.668;37.858;2022-07-22T05:49:25;99518.41;;;19.40;68.61
34674;BME280;20879;55.668;37.858;2022-07-22T05:52:00;99451.41;;;19.49;68.13
34674;BME280;20879;55.668;37.858;2022-07-22T05:54:32;99465.72;;;19.43;68.22
34674;BME280;20879;55.668;37.858;2022-07-22T05:57:01;99477.88;;;19.44;69.08
34674;BME280;20879;55.668;37.858;2022-07-22T05:59:30;99507.28;;;19.51;68.88
34674;BME280;20879;55.668;37.858;2022-07-22T06:01:59;99490.00;;;19.47;68.73
34674;BME280;20879;55.668;37.858;2022-07-22T06:04:40;99506.50;;;19.65;67.37
34674;BME280;20879;55.668;37.858;2022-07-22T06:07:11;99517.53;;;19.71;68.39
34674;BME280;20879;55.668;37.858;2022-07-22T06:09:43;99521.28;;;19.83;68.07
34674;BME280;20879;55.668;37.858;2022-07-22T06:12:14;99489.06;;;19.96;66.99
34674;BME280;20879;55.668;37.858;2022-07-22T06:14:44;99502.09;;;19.97;67.37
34674;BME280;20879;55.668;37.858;2022-07-22T06:17:14;99517.69;;;20.00;66.53
34674;BME280;20879;55.668;37.858;2022-07-22T06:19:43;99504.38;;;20.03;66.64
34674;BME280;20879;55.668;37.858;2022-07-22T06:22:12;99497.31;;;20.04;67.31
34674;BME280;20879;55.668;37.858;2022-07-22T06:24:46;99484.63;;;19.96;66.48
34674;BME280;20879;55.668;37.858;2022-07-22T06:27:16;99512.81;;;20.08;66.52
34674;BME280;20879;55.668;37.858;2022-07-22T06:29:48;99498.47;;;20.14;67.14
34674;BME280;20879;55.668;37.858;2022-07-22T06:32:18;99494.75;;;20.18;66.72
34674;BME280;20879;55.668;37.858;2022-07-22T06:34:52;99460.66;;;20.17;66.52
34674;BME280;20879;55.668;37.858;2022-07-22T06:37:22;99506.09;;;20.19;66.79
34674;BME280;20879;55.668;37.858;2022-07-22T06:40:14;99500.31;;;20.28;65.90
34674;BME280;20879;55.668;37.858;2022-07-22T06:43:06;99515.72;;;20.34;66.17
34674;BME280;20879;55.668;37.858;2022-07-22T06:46:04;99463.44;;;20.58;65.53
34674;BME280;20879;55.668;37.858;2022-07-22T06:48:45;99515.09;;;20.59;64.54
34674;BME280;20879;55.668;37.858;2022-07-22T06:51:15;99511.84;;;20.70;64.93
34674;BME280;20879;55.668;37.858;2022-07-22T06:53:44;99512.91;;;20.82;64.03
34674;BME280;20879;55.668;37.858;2022-07-22T06:56:17;99476.44;;;20.76;63.96
34674;BME280;20879;55.668;37.858;2022-07-22T06:58:47;99529.06;;;21.05;62.97
34674;BME280;20879;55.668;37.858;2022-07-22T07:01:17;99517.59;;;21.20;62.41
34674;BME280;20879;55.668;37.858;2022-07-22T07:03:55;99509.44;;;21.52;61.39
34674;BME280;20879;55.668;37.858;2022-07-22T07:06:27;99507.56;;;21.81;60.81
34674;BME280;20879;55.668;37.858;2022-07-22T07:09:15;99514.44;;;21.84;60.17
34674;BME280;20879;55.668;37.858;2022-07-22T07:11:59;99513.44;;;21.99;59.46
34674;BME280;20879;55.668;37.858;2022-07-22T07:14:50;99465.91;;;22.14;58.89
34674;BME280;20879;55.668;37.858;2022-07-22T07:17:40;99510.91;;;21.98;58.95
34674;BME280;20879;55.668;37.858;2022-07-22T07:20:11;99509.31;;;21.95;58.35
34674;BME280;20879;55.668;37.858;2022-07-22T07:22:41;99537.56;;;21.93;58.87
34674;BME280;20879;55.668;37.858;2022-07-22T07:25:11;99488.63;;;21.89;58.21
34674;BME280;20879;55.668;37.858;2022-07-22T07:27:54;99446.75;;;21.72;58.05
34674;BME280;20879;55.668;37.858;2022-07-22T07:30:46;99495.59;;;21.63;58.72
34674;BME280;20879;55.668;37.858;2022-07-22T07:33:15;99537.41;;;21.82;58.95
34674;BME280;20879;55.668;37.858;2022-07-22T07:35:46;99475.69;;;21.99;57.87
34674;BME280;20879;55.668;37.858;2022-07-22T07:38:22;99481.81;;;21.99;58.21
34674;BME280;20879;55.668;37.858;2022-07-22T07:40:52;99522.34;;;21.84;57.88
34674;BME280;20879;55.668;37.858;2022-07-22T07:43:23;99521.94;;;21.90;58.05
34674;BME280;20879;55.668;37.858;2022-07-22T07:45:53;99487.50;;;21.93;57.20
34674;BME280;20879;55.668;37.858;2022-07-22T07:48:23;99523.16;;;22.12;57.25
34674;BME280;20879;55.668;37.858;2022-07-22T07:50:53;99533.16;;;22.34;57.40
34674;BME280;20879;55.668;37.858;2022-07-22T07:53:22;99531.28;;;22.62;56.24
34674;BME280;20879;55.668;37.858;2022-07-22T07:55:54;99492.97;;;22.82;55.04
34674;BME280;20879;55.668;37.858;2022-07-22T07:58:27;99495.59;;;22.82;55.17
34674;BME280;20879;55.668;37.858;2022-07-22T08:01:05;99497.81;;;22.75;55.37
34674;BME280;20879;55.668;37.858;2022-07-22T08:03:35;99521.38;;;22.78;55.66
34674;BME280;20879;55.668;37.858;2022-07-22T08:06:06;99524.53;;;22.71;55.21
34674;BME280;20879;55.668;37.858;2022-07-22T08:08:36;99511.88;;;22.89;54.24
34674;BME280;20879;55.668;37.858;2022-07-22T08:11:12;99531.06;;;23.03;54.54
34674;BME280;20879;55.668;37.858;2022-07-22T08:13:46;99524.94;;;23.16;54.76
34674;BME280;20879;55.668;37.858;2022-07-22T08:16:54;99514.00;;;23.46;54.22
34674;BME280;20879;55.668;37.858;2022-07-22T08:19:24;99492.41;;;23.28;53.22
34674;BME280;20879;55.668;37.858;2022-07-22T08:21:54;99540.16;;;22.99;54.17
34674;BME280;20879;55.668;37.858;2022-07-22T08:24:27;99544.06;;;22.81;55.12
34674;BME280;20879;55.668;37.858;2022-07-22T08:27:00;99531.19;;;22.89;55.05
34674;BME280;20879;55.668;37.858;2022-07-22T08:29:32;99534.53;;;23.04;54.04
34674;BME280;20879;55.668;37.858;2022-07-22T08:32:02;99529.13;;;23.44;52.91
34674;BME280;20879;55.668;37.858;2022-07-22T08:34:31;99485.44;;;23.76;51.60
34674;BME280;20879;55.668;37.858;2022-07-22T08:37:01;99551.81;;;23.84;51.38
34674;BME280;20879;55.668;37.858;2022-07-22T08:39:31;99532.31;;;23.73;51.09
34674;BME280;20879;55.668;37.858;2022-07-22T08:42:01;99550.19;;;23.33;51.85
34674;BME280;20879;55.668;37.858;2022-07-22T08:44:33;99504.03;;;23.13;51.85
34674;BME280;20879;55.668;37.858;2022-07-22T08:47:03;99497.09;;;22.86;52.14
34674;BME280;20879;55.668;37.858;2022-07-22T08:50:10;99534.88;;;22.86;51.89
34674;BME280;20879;55.668;37.858;2022-07-22T08:53:09;99538.34;;;22.87;51.58
34674;BME280;20879;55.668;37.858;2022-07-22T08:55:42;99562.31;;;23.10;51.21
34674;BME280;20879;55.668;37.858;2022-07-22T08:58:13;99548.34;;;23.46;51.16
34674;BME280;20879;55.668;37.858;2022-07-22T09:00:45;99545.72;;;23.70;50.42
34674;BME280;20879;55.668;37.858;2022-07-22T09:03:20;99552.00;;;23.94;50.00
34674;BME280;20879;55.668;37.858;2022-07-22T09:05:54;99542.19;;;24.07;48.66
34674;BME280;20879;55.668;37.858;2022-07-22T09:08:24;99549.81;;;24.12;48.31
34674;BME280;20879;55.668;37.858;2022-07-22T09:11:15;99558.81;;;24.09;48.24
34674;BME280;20879;55.668;37.858;2022-07-22T09:13:51;99525.28;;;23.85;47.81
34674;BME280;20879;55.668;37.858;2022-07-22T09:16:49;99568.19;;;23.52;49.44
34674;BME280;20879;55.668;37.858;2022-07-22T09:19:31;99579.34;;;23.18;50.32
34674;BME280;20879;55.668;37.858;2022-07-22T09:22:34;99534.03;;;22.86;51.50
34674;BME280;20879;55.668;37.858;2022-07-22T09:25:24;99539.94;;;23.02;51.28
34674;BME280;20879;55.668;37.858;2022-07-22T09:28:23;99550.84;;;23.11;51.63
34674;BME280;20879;55.668;37.858;2022-07-22T09:31:24;99495.44;;;23.35;49.16
34674;BME280;20879;55.668;37.858;2022-07-22T09:34:28;99559.94;;;23.81;48.03
34674;BME280;20879;55.668;37.858;2022-07-22T09:37:07;99512.28;;;24.06;46.15
34674;BME280;20879;55.668;37.858;2022-07-22T09:39:37;99560.28;;;24.13;46.96
34674;BME280;20879;55.668;37.858;2022-07-22T09:42:09;99566.06;;;24.18;46.29
34674;BME280;20879;55.668;37.858;2022-07-22T09:44:38;99558.00;;;24.20;46.12
34674;BME280;20879;55.668;37.858;2022-07-22T09:47:27;99533.59;;;24.16;47.29
34674;BME280;20879;55.668;37.858;2022-07-22T09:50:26;99533.88;;;24.36;46.24
34674;BME280;20879;55.668;37.858;2022-07-22T09:53:16;99542.81;;;24.46;45.92
34674;BME280;20879;55.668;37.858;2022-07-22T09:55:54;99513.59;;;24.48;45.60
34674;BME280;20879;55.668;37.858;2022-07-22T09:58:25;99526.50;;;24.17;46.77
34674;BME280;20879;55.668;37.858;2022-07-22T10:00:59;99536.59;;;24.12;46.25
34674;BME280;20879;55.668;37.858;2022-07-22T10:03:31;99583.06;;;24.03;46.67
34674;BME280;20879;55.668;37.858;2022-07-22T10:06:06;99534.16;;;24.08;46.38
34674;BME280;20879;55.668;37.858;2022-07-22T10:08:37;99574.56;;;24.11;46.90
34674;BME280;20879;55.668;37.858;2022-07-22T10:11:08;99567.88;;;24.18;46.07
34674;BME280;20879;55.668;37.858;2022-07-22T10:13:40;99532.47;;;24.43;46.21
34674;BME280;20879;55.668;37.858;2022-07-22T10:16:12;99552.81;;;24.42;45.53
34674;BME280;20879;55.668;37.858;2022-07-22T10:18:44;99559.41;;;24.37;46.55
34674;BME280;20879;55.668;37.858;2022-07-22T10:21:30;99573.25;;;24.87;45.34
34674;BME280;20879;55.668;37.858;2022-07-22T10:24:08;99540.88;;;24.84;45.50
34674;BME280;20879;55.668;37.858;2022-07-22T10:26:51;99566.72;;;24.80;46.31
34674;BME280;20879;55.668;37.858;2022-07-22T10:29:27;99561.31;;;24.82;46.37
34674;BME280;20879;55.668;37.858;2022-07-22T10:32:23;99556.13;;;24.80;46.27
34674;BME280;20879;55.668;37.858;2022-07-22T10:35:22;99566.75;;;24.45;47.59
34674;BME280;20879;55.668;37.858;2022-07-22T10:38:01;99560.88;;;24.17;47.38
34674;BME280;20879;55.668;37.858;2022-07-22T10:40:32;99557.16;;;24.19;47.34
34674;BME280;20879;55.668;37.858;2022-07-22T10:43:15;99576.56;;;24.31;47.11
34674;BME280;20879;55.668;37.858;2022-07-22T10:45:46;99580.91;;;24.32;47.42
34674;BME280;20879;55.668;37.858;2022-07-22T10:48:16;99580.34;;;24.40;46.97
34674;BME280;20879;55.668;37.858;2022-07-22T10:50:48;99591.91;;;24.15;47.67
34674;BME280;20879;55.668;37.858;2022-07-22T10:53:22;99594.56;;;24.26;47.78
34674;BME280;20879;55.668;37.858;2022-07-22T10:56:04;99559.75;;;24.43;47.30
34674;BME280;20879;55.668;37.858;2022-07-22T10:58:49;99544.94;;;24.76;46.66
34674;BME280;20879;55.668;37.858;2022-07-22T11:01:21;99591.41;;;24.92;46.30
34674;BME280;20879;55.668;37.858;2022-07-22T11:03:50;99516.06;;;25.07;46.10
34674;BME280;20879;55.668;37.858;2022-07-22T11:06:26;99574.22;;;24.98;45.11
34674;BME280;20879;55.668;37.858;2022-07-22T11:09:00;99590.81;;;24.88;45.76
34674;BME280;20879;55.668;37.858;2022-07-22T11:11:35;99552.41;;;24.83;44.84
34674;BME280;20879;55.668;37.858;2022-07-22T11:14:17;99555.63;;;24.64;45.45
34674;BME280;20879;55.668;37.858;2022-07-22T11:16:49;99580.13;;;24.54;46.27
34674;BME280;20879;55.668;37.858;2022-07-22T11:19:23;99595.56;;;24.36;46.76
34674;BME280;20879;55.668;37.858;2022-07-22T11:21:55;99606.63;;;24.30;46.99
34674;BME280;20879;55.668;37.858;2022-07-22T11:24:26;99583.22;;;24.13;46.96
34674;BME280;20879;55.668;37.858;2022-07-22T11:26:57;99561.91;;;24.03;47.20
34674;BME280;20879;55.668;37.858;2022-07-22T11:29:34;99591.31;;;23.98;47.31
34674;BME280;20879;55.668;37.858;2022-07-22T11:32:06;99537.44;;;23.88;47.83
34674;BME280;20879;55.668;37.858;2022-07-22T11:34:37;99546.72;;;23.81;48.17
34674;BME280;20879;55.668;37.858;2022-07-22T11:37:09;99581.66;;;23.86;47.76
34674;BME280;20879;55.668;37.858;2022-07-22T11:39:42;99582.97;;;24.04;48.47
34674;BME280;20879;55.668;37.858;2022-07-22T11:42:11;99558.16;;;24.30;47.73
34674;BME280;20879;55.668;37.858;2022-07-22T11:44:41;99568.16;;;24.37;47.71
34674;BME280;20879;55.668;37.858;2022-07-22T11:47:16;99560.75;;;24.54;47.62
34674;BME280;20879;55.668;37.858;2022-07-22T11:49:46;99556.00;;;24.82;47.15
34674;BME280;20879;55.668;37.858;2022-07-22T11:52:16;99519.31;;;24.88;45.37
34674;BME280;20879;55.668;37.858;2022-07-22T11:54:47;99544.97;;;24.88;45.55
34674;BME280;20879;55.668;37.858;2022-07-22T11:57:16;99544.34;;;24.84;45.83
34674;BME280;20879;55.668;37.858;2022-07-22T11:59:45;99544.81;;;24.67;45.80
34674;BME280;20879;55.668;37.858;2022-07-22T12:02:15;99565.84;;;24.57;46.65
34674;BME280;20879;55.668;37.858;2022-07-22T12:04:46;99526.03;;;24.70;46.20
34674;BME280;20879;55.668;37.858;2022-07-22T12:07:29;99556.19;;;24.56;46.18
34674;BME280;20879;55.668;37.858;2022-07-22T12:10:03;99526.88;;;24.59;46.39
34674;BME280;20879;55.668;37.858;2022-07-22T12:12:39;99517.00;;;24.61;45.40
34674;BME280;20879;55.668;37.858;2022-07-22T12:15:09;99489.88;;;24.46;45.34
34674;BME280;20879;55.668;37.858;2022-07-22T12:18:14;99533.81;;;24.49;45.87
34674;BME280;20879;55.668;37.858;2022-07-22T12:20:44;99551.25;;;24.51;45.91
34674;BME280;20879;55.668;37.858;2022-07-22T12:23:21;99584.63;;;24.65;46.19
34674;BME280;20879;55.668;37.858;2022-07-22T12:25:56;99563.28;;;24.91;45.04
34674;BME280;20879;55.668;37.858;2022-07-22T12:28:26;99535.31;;;25.09;43.48
34674;BME280;20879;55.668;37.858;2022-07-22T12:30:56;99553.63;;;25.12;43.53
34674;BME280;20879;55.668;37.858;2022-07-22T12:33:25;99538.59;;;25.02;44.14
34674;BME280;20879;55.668;37.858;2022-07-22T12:35:59;99572.75;;;24.93;43.94
34674;BME280;20879;55.668;37.858;2022-07-22T12:38:29;99525.09;;;24.93;43.68
34674;BME280;20879;55.668;37.858;2022-07-22T12:41:27;99574.84;;;25.01;44.41
34674;BME280;20879;55.668;37.858;2022-07-22T12:43:58;99537.97;;;25.09;43.74
34674;BME280;20879;55.668;37.858;2022-07-22T12:46:28;99567.34;;;25.06;44.12
34674;BME280;20879;55.668;37.858;2022-07-22T12:48:58;99571.69;;;24.96;44.56
34674;BME280;20879;55.668;37.858;2022-07-22T12:57:44;99513.34;;;24.04;44.68
34674;BME280;20879;55.668;37.858;2022-07-22T13:00:19;99469.50;;;24.13;44.74
34674;BME280;20879;55.668;37.858;2022-07-22T13:02:50;99459.97;;;23.99;44.50
34674;BME280;20879;55.668;37.858;2022-07-22T13:05:21;99453.91;;;24.32;44.15
34674;BME280;20879;55.668;37.858;2022-07-22T13:07:51;99521.03;;;24.89;44.66
34674;BME280;20879;55.668;37.858;2022-07-22T13:10:24;99542.06;;;25.13;44.46
34674;BME280;20879;55.668;37.858;2022-07-22T13:12:56;99461.63;;;24.35;44.37
34674;BME280;20879;55.668;37.858;2022-07-22T13:15:26;99446.00;;;24.55;44.99
34674;BME280;20879;55.668;37.858;2022-07-22T13:17:55;99525.84;;;25.07;43.07
34674;BME280;20879;55.668;37.858;2022-07-22T13:20:25;99546.16;;;25.06;43.98
34674;BME280;20879;55.668;37.858;2022-07-22T13:22:55;99540.00;;;24.83;43.89
34674;BME280;20879;55.668;37.858;2022-07-22T13:25:25;99470.59;;;24.21;44.31
34674;BME280;20879;55.668;37.858;2022-07-22T13:27:57;99497.69;;;24.25;44.67
34674;BME280;20879;55.668;37.858;2022-07-22T13:30:27;99552.41;;;24.60;44.46